Nasco Pearl — VRHS2 — position and weather

sailwx.info

Track history (hours):
 
Tides and Currents Weather Stations Pressure Air Temp Water Temp Dewpoint Dewpoint Depression Visibility Wind Speed Wind Dir Waves Ship Positions

Nasco Pearl

Last reported at 2016-Jun-01 01:05 UTC. Time now 2016-Jun-25 16:08 UTC.
Position N 01°13' E 103°31'.
Warning: this ship's position is 24 days out of date.

Length 189 m; draft 13.1 m.

Type: Cargo ship. MMSI: 477982400.

Date/timePositionNaut miles runAvg speedWind from/ knotsBaromVisibWave heightAir tempDewpointWater temp
2016-Jun-01 01:05N 01°13' E 103°31'711.1
2016-Jun-01 00:30N 01°11' E 103°37'1010.3
2016-May-31 23:33N 01°10' E 103°47'1010.1
2016-May-31 22:33N 01°14' E 103°56'3 0.2
2016-May-31 11:04N 01°16' E 103°58'  
2016-May-22 17:33N 36°41' E 123°14'1913.0
2016-May-22 16:04N 37°01' E 123°11'913.5
2016-May-22 15:26N 37°09' E 123°10'1213.3
2016-May-22 14:33N 37°21' E 123°09'1111.5
2016-May-22 13:33N 37°32' E 123°05'1211.6
2016-May-22 12:32N 37°39' E 122°53'1111.3
2016-May-22 11:33N 37°44' E 122°40'8611.6
2016-May-22 04:06N 38°28' E 121°06'710.9
2016-May-22 03:30N 38°31' E 120°59'2611.1
2016-May-22 01:12N 38°38' E 120°27'  
Track history (hours):
 
Tides and Currents Weather Stations Pressure Air Temp Water Temp Dewpoint Dewpoint Depression Visibility Wind Speed Wind Dir Waves Ship Positions

Nasco Pearl

Last reported at 2016-Jun-01 01:05 UTC. Time now 2016-Jun-25 16:08 UTC.
Position N 01°13' E 103°31'.
Warning: this ship's position is 24 days out of date.

Length 189 m; draft 13.1 m.

Type: Cargo ship. MMSI: 477982400.

Date/timePositionNaut miles runAvg speedWind from/ knotsBaromVisibWave heightAir tempDewpointWater temp
2016-Jun-01 01:05N 01°13' E 103°31'711.1
2016-Jun-01 00:30N 01°11' E 103°37'1010.3
2016-May-31 23:33N 01°10' E 103°47'1010.1
2016-May-31 22:33N 01°14' E 103°56'3 0.2
2016-May-31 11:04N 01°16' E 103°58'  
2016-May-22 17:33N 36°41' E 123°14'1913.0
2016-May-22 16:04N 37°01' E 123°11'913.5
2016-May-22 15:26N 37°09' E 123°10'1213.3
2016-May-22 14:33N 37°21' E 123°09'1111.5
2016-May-22 13:33N 37°32' E 123°05'1211.6
2016-May-22 12:32N 37°39' E 122°53'1111.3
2016-May-22 11:33N 37°44' E 122°40'8611.6
2016-May-22 04:06N 38°28' E 121°06'710.9
2016-May-22 03:30N 38°31' E 120°59'2611.1
2016-May-22 01:12N 38°38' E 120°27'  

Dump ship's entire track history